Details From EGPM - Scatsta
To EKVG - Vagar
Flight Number -
Tags decoded
Created
Modified
Stats Distance 222 nm / 411 km
Max Altitude 0 ft / 0 m
Waypoints 4
Social Downloads 2
Likes 0
Share VATSIM

Download

Looking for another format? Having issues loading an existing format? Contact us
Advertisement - Login to hide

Notes

Requested: EGPM MY VG EKVG

Route

EGPM MY VG EKVG

ID Type Via Altitude Latitude Longitude Leg Dist Tot Dist Heading (true) Name
O EGPM APT - 0 ft / 0 m 60.43265˚ -1.29611˚ - 0 nm - Scatsta
MY NDB - 0 ft / 0 m 62.10694˚ -7.58778˚ 207 nm 207 nm 302° / 296° MYGGENES NDB
VG NDB - 0 ft / 0 m 62.04335˚ -7.19566˚ 11 nm 219 nm 109° / 109° VAGAR NDB
O EKVG APT - 0 ft / 0 m 62.06358˚ -7.27704˚ 2 nm 221 nm 298° / 298° Vagar

Altitude Profile

Advertisement - Login to hide

Weather


0- 5 10 15 20 25 30 35+ Temperature / ° C

Clouds and Precipitation
Forecast for 2017-12-16 18:00 UTC. Updated 14 minutes ago

Ground ~20,000 ft ~40,000 ft Winds

EGPM

Details ICAO EGPM (SDZ)
Name Scatsta
Region United Kingdom
Timezone Europe/London (UTC+0.0)
Stats Elevation 81 ft / 25 m (AMSL)
Location 60.432651° -1.296108°
Runways 1
Magnetic Variation 2.141° W

METAR

EGPM 161320Z 34006KT 9999 FEW032 03/M01 Q1012

Decode

TAF

Not found

Departure Runways

ID Width Length Bearing (true) Bearing (mag) Surface Threshold Offset Overrun Length
06 102 ft / 31 m 4,442 ft / 1,354 m 55.29° 57.43° Asphalt 374 ft / 114 m 0 ft / 0 m
24 102 ft / 31 m 4,442 ft / 1,354 m 235.31° 237.45° Asphalt 308 ft / 94 m 0 ft / 0 m

EKVG

Details ICAO EKVG (FAE)
Name Vagar
Region Denmark / Faroe Islands
Timezone Atlantic/Faroe (UTC+0.0)
Stats Elevation 280 ft / 85 m (AMSL)
Location 62.063584° -7.277044°
Runways 1
Magnetic Variation 5.383° W

METAR

EKVG 161326Z 14001KT 9999 FEW032 BKN038 M00/M03 Q1014 RMK WIND 850FT 16003KT

Decode

TAF

Not found

Destination Runways

ID Width Length Bearing (true) Bearing (mag) Surface Threshold Offset Overrun Length
13 98 ft / 30 m 4,088 ft / 1,246 m 117.92° 123.30° Asphalt 0 ft / 0 m 197 ft / 60 m
31 98 ft / 30 m 4,088 ft / 1,246 m 297.94° 303.32° Asphalt 0 ft / 0 m 197 ft / 60 m

Approach Navaids

Runway Type Ident Frequency Range Bearing (true) Bearing (mag) Slope Elevation
13 Localiser SF 109.10 MHz 17 nm / 31 km 104.19° 109.57° - 268 ft / 82 m (AMSL)
13 DME SF 109.10 MHz 18 nm / 33 km - - - 268 ft / 82 m (AMSL)
31 Localiser MF 110.30 MHz 26 nm / 48 km 296.18° 301.56° - 276 ft / 84 m (AMSL)
31 DME MF 110.30 MHz 25 nm / 46 km - - - 275 ft / 84 m (AMSL)

Popular Alternatives